createdAt,value
2018-12-29T00:00:36.196Z,3.40
2018-12-29T00:03:23.163Z,3.40
2018-12-29T00:06:09.066Z,3.40
2018-12-29T00:08:55.979Z,3.40
2018-12-29T00:11:43.066Z,3.40
2018-12-29T00:17:14.463Z,3.40
2018-12-29T00:20:01.135Z,3.30
2018-12-29T00:22:48.169Z,3.40
2018-12-29T00:25:33.955Z,3.40
2018-12-29T00:28:20.851Z,3.40
2018-12-29T00:31:06.558Z,3.40
2018-12-29T00:33:53.459Z,3.40
2018-12-29T00:36:39.163Z,3.40
2018-12-29T00:39:26.040Z,3.40
2018-12-29T00:42:11.868Z,3.50
2018-12-29T00:45:02.437Z,3.50
2018-12-29T00:47:51.661Z,3.50
2018-12-29T00:50:38.608Z,3.50
2018-12-29T00:53:25.504Z,3.50
2018-12-29T00:56:11.292Z,3.50
2018-12-29T00:58:58.121Z,3.50
2018-12-29T01:01:43.865Z,3.50
2018-12-29T01:04:30.780Z,3.60
2018-12-29T01:07:16.615Z,3.50
2018-12-29T01:10:03.486Z,3.60
2018-12-29T01:12:50.387Z,3.60
2018-12-29T01:18:21.864Z,3.60
2018-12-29T01:21:08.523Z,3.60
2018-12-29T01:23:55.330Z,3.70
2018-12-29T01:26:41.059Z,3.70
2018-12-29T01:29:28.090Z,3.60
2018-12-29T01:32:13.843Z,3.70
2018-12-29T01:35:00.795Z,3.70
2018-12-29T01:37:46.587Z,3.60
2018-12-29T01:40:33.568Z,3.60
2018-12-29T01:43:19.322Z,3.60
2018-12-29T01:46:06.258Z,3.60
2018-12-29T01:48:51.965Z,3.60
2018-12-29T01:51:38.942Z,3.70
2018-12-29T01:54:24.684Z,3.60
2018-12-29T01:57:11.579Z,3.60
2018-12-29T01:59:58.541Z,3.60
2018-12-29T02:02:45.340Z,3.60
2018-12-29T02:05:32.302Z,3.60
2018-12-29T02:08:19.256Z,3.60
2018-12-29T02:11:06.163Z,3.60
2018-12-29T02:13:53.000Z,3.60
2018-12-29T02:16:39.847Z,3.60
2018-12-29T02:19:26.763Z,3.60
2018-12-29T02:22:14.770Z,3.60
2018-12-29T02:25:01.825Z,3.60
2018-12-29T02:27:47.588Z,3.60
2018-12-29T02:30:34.389Z,3.60
2018-12-29T02:33:20.147Z,3.60
2018-12-29T02:36:07.190Z,3.60
2018-12-29T02:38:52.915Z,3.60
2018-12-29T02:41:39.867Z,3.60
2018-12-29T02:44:25.572Z,3.60
2018-12-29T02:47:12.367Z,3.60
2018-12-29T02:49:58.147Z,3.60
2018-12-29T02:52:45.068Z,3.60
2018-12-29T02:55:30.760Z,3.60
2018-12-29T02:58:17.882Z,3.60
2018-12-29T03:01:04.808Z,3.60
2018-12-29T03:03:51.825Z,3.60
2018-12-29T03:06:38.734Z,3.60
2018-12-29T03:09:25.538Z,3.60
2018-12-29T03:12:12.474Z,3.60
2018-12-29T03:14:59.400Z,3.60
2018-12-29T03:17:47.807Z,3.60
2018-12-29T03:20:34.598Z,3.60
2018-12-29T03:23:23.451Z,3.60
2018-12-29T03:28:55.012Z,3.50
2018-12-29T03:31:43.460Z,3.50
2018-12-29T03:34:30.509Z,3.50
2018-12-29T03:37:17.466Z,3.60
2018-12-29T03:40:04.385Z,3.60
2018-12-29T03:42:51.267Z,3.50
2018-12-29T03:45:38.075Z,3.60
2018-12-29T03:48:24.894Z,3.50
2018-12-29T03:51:11.860Z,3.50
2018-12-29T03:53:58.755Z,3.60
2018-12-29T03:56:45.736Z,3.50
2018-12-29T03:59:34.325Z,3.50
2018-12-29T04:02:21.447Z,3.50
2018-12-29T04:05:08.447Z,3.50
2018-12-29T04:07:55.234Z,3.50
2018-12-29T04:10:42.159Z,3.50
2018-12-29T04:13:29.076Z,3.50
2018-12-29T04:16:15.942Z,3.40
2018-12-29T04:19:02.778Z,3.40
2018-12-29T04:21:49.655Z,3.50
2018-12-29T04:24:36.913Z,3.50
2018-12-29T04:30:08.411Z,3.50
2018-12-29T04:32:55.373Z,3.50
2018-12-29T04:35:42.360Z,3.50
2018-12-29T04:38:29.194Z,3.50
2018-12-29T04:41:16.217Z,3.50
2018-12-29T04:44:03.162Z,3.50
2018-12-29T04:46:50.204Z,3.50
2018-12-29T04:49:37.205Z,3.60
2018-12-29T04:52:24.086Z,3.60
2018-12-29T04:55:10.987Z,3.60
2018-12-29T04:57:58.095Z,3.60
2018-12-29T05:00:43.843Z,3.60
2018-12-29T05:03:30.658Z,3.60
2018-12-29T05:06:16.421Z,3.60
2018-12-29T05:09:03.512Z,3.60
2018-12-29T05:11:49.232Z,3.70
2018-12-29T05:14:36.177Z,3.70
2018-12-29T05:17:23.157Z,3.70
2018-12-29T05:22:54.656Z,3.60
2018-12-29T05:25:41.280Z,3.70
2018-12-29T05:28:28.171Z,3.70
2018-12-29T05:31:14.012Z,3.70
2018-12-29T05:34:00.988Z,3.70
2018-12-29T05:36:46.747Z,3.70
2018-12-29T05:39:33.610Z,3.70
2018-12-29T05:42:19.393Z,3.70
2018-12-29T05:45:06.224Z,3.70
2018-12-29T05:47:51.953Z,3.70
2018-12-29T05:50:38.730Z,3.70
2018-12-29T05:53:24.401Z,3.70
2018-12-29T05:56:11.367Z,3.70
2018-12-29T05:58:57.150Z,3.70
2018-12-29T06:01:44.081Z,3.70
2018-12-29T06:04:30.987Z,3.70
2018-12-29T06:07:17.852Z,3.70
2018-12-29T06:10:04.771Z,3.80
2018-12-29T06:12:51.683Z,3.70
2018-12-29T06:15:38.678Z,3.70
2018-12-29T06:18:25.482Z,3.70
2018-12-29T06:21:12.345Z,3.80
2018-12-29T06:23:59.218Z,3.80
2018-12-29T06:26:47.056Z,3.80
2018-12-29T06:32:19.341Z,3.80
2018-12-29T06:35:06.293Z,3.80
2018-12-29T06:37:53.439Z,3.80
2018-12-29T06:40:40.284Z,3.80
2018-12-29T06:43:27.137Z,3.80
2018-12-29T06:46:14.030Z,3.80
2018-12-29T06:49:00.942Z,3.80
2018-12-29T06:51:47.863Z,3.90
2018-12-29T06:54:34.737Z,3.90
2018-12-29T06:57:22.063Z,3.90
2018-12-29T07:00:09.493Z,3.90
2018-12-29T07:02:55.504Z,3.90
2018-12-29T07:05:42.891Z,4.00
2018-12-29T07:08:28.985Z,4.00
2018-12-29T07:11:16.154Z,4.00
2018-12-29T07:14:02.335Z,4.00
2018-12-29T07:16:49.701Z,4.10
2018-12-29T07:19:37.208Z,4.10
2018-12-29T07:25:09.876Z,4.10
2018-12-29T07:27:57.476Z,4.10
2018-12-29T07:30:44.716Z,4.10
2018-12-29T07:33:31.610Z,4.10
2018-12-29T07:36:18.488Z,4.10
2018-12-29T07:39:05.542Z,4.20
2018-12-29T07:41:52.464Z,4.20
2018-12-29T07:44:39.313Z,4.20
2018-12-29T07:47:26.291Z,4.20
2018-12-29T07:50:13.211Z,4.20
2018-12-29T07:53:00.097Z,4.20
2018-12-29T07:55:47.027Z,4.30
2018-12-29T07:58:33.957Z,4.30
2018-12-29T08:01:20.914Z,4.30
2018-12-29T08:04:06.721Z,4.30
2018-12-29T08:06:53.506Z,4.30
2018-12-29T08:09:39.324Z,4.30
2018-12-29T08:12:26.301Z,4.40
2018-12-29T08:15:11.909Z,4.40
2018-12-29T08:17:59.865Z,4.40
2018-12-29T08:20:51.115Z,4.40
2018-12-29T08:26:22.550Z,4.40
2018-12-29T08:29:08.395Z,4.50
2018-12-29T08:31:55.349Z,4.50
2018-12-29T08:34:41.079Z,4.50
2018-12-29T08:37:27.994Z,4.50
2018-12-29T08:40:13.755Z,4.60
2018-12-29T08:43:00.599Z,4.60
2018-12-29T08:45:46.333Z,4.60
2018-12-29T08:48:33.173Z,4.60
2018-12-29T08:51:18.951Z,4.60
2018-12-29T08:54:05.749Z,4.60
2018-12-29T08:57:10.047Z,4.60
2018-12-29T09:00:01.445Z,4.70
2018-12-29T09:02:47.162Z,4.70
2018-12-29T09:05:34.069Z,4.70
2018-12-29T09:08:20.884Z,4.70
2018-12-29T09:11:07.705Z,4.70
2018-12-29T09:13:54.578Z,4.80
2018-12-29T09:16:41.499Z,4.80
2018-12-29T09:19:28.677Z,4.80
2018-12-29T09:22:15.961Z,4.80
2018-12-29T09:25:03.000Z,4.80
2018-12-29T09:27:49.962Z,4.80
2018-12-29T09:30:36.894Z,4.90
2018-12-29T09:36:08.140Z,4.90
2018-12-29T09:38:55.067Z,4.90
2018-12-29T09:41:41.964Z,5.00
2018-12-29T09:44:28.883Z,4.90
2018-12-29T09:47:19.619Z,4.90
2018-12-29T09:50:08.893Z,5.00
2018-12-29T09:52:54.259Z,5.00
2018-12-29T09:55:40.752Z,5.00
2018-12-29T09:58:26.201Z,5.00
2018-12-29T10:01:12.630Z,5.10
2018-12-29T10:03:58.046Z,5.10
2018-12-29T10:06:44.614Z,5.10
2018-12-29T10:09:31.260Z,5.20
2018-12-29T10:12:19.488Z,5.20
2018-12-29T10:15:06.153Z,5.20
2018-12-29T10:17:52.581Z,5.30
2018-12-29T10:20:38.991Z,5.30
2018-12-29T10:23:25.621Z,5.40
2018-12-29T10:26:12.208Z,5.40
2018-12-29T10:28:58.759Z,5.40
2018-12-29T10:31:45.673Z,5.50
2018-12-29T10:37:16.479Z,5.60
2018-12-29T10:40:04.625Z,5.60
2018-12-29T10:42:51.397Z,5.60
2018-12-29T10:45:36.793Z,5.70
2018-12-29T10:48:07.939Z,5.70
2018-12-29T10:50:55.078Z,5.70
2018-12-29T10:53:41.695Z,5.80
2018-12-29T10:56:28.279Z,5.80
2018-12-29T10:59:14.819Z,5.80
2018-12-29T11:02:01.367Z,5.80
2018-12-29T11:04:47.988Z,5.80
2018-12-29T11:07:33.553Z,5.80
2018-12-29T11:10:20.190Z,5.80
2018-12-29T11:13:05.620Z,5.80
2018-12-29T11:15:52.149Z,5.80
2018-12-29T11:18:37.509Z,5.80
2018-12-29T11:21:24.100Z,5.80
2018-12-29T11:24:10.675Z,5.80
2018-12-29T11:26:57.577Z,5.90
2018-12-29T11:29:43.396Z,5.90
2018-12-29T11:32:30.433Z,6.00
2018-12-29T11:35:17.374Z,6.00
2018-12-29T11:38:04.342Z,6.00
2018-12-29T11:40:51.248Z,6.00
2018-12-29T11:43:38.382Z,6.00
2018-12-29T11:46:25.221Z,6.00
2018-12-29T11:49:17.986Z,6.00
2018-12-29T11:52:06.406Z,6.00
2018-12-29T11:54:52.309Z,6.00
2018-12-29T11:57:39.138Z,6.10
2018-12-29T12:00:24.863Z,6.10
2018-12-29T12:03:11.681Z,6.20
2018-12-29T12:05:57.405Z,6.20
2018-12-29T12:11:57.830Z,6.20
2018-12-29T12:14:45.560Z,6.30
2018-12-29T12:17:33.592Z,6.30
2018-12-29T12:20:20.575Z,6.30
2018-12-29T12:23:07.550Z,6.30
2018-12-29T12:25:54.540Z,6.30
2018-12-29T12:28:41.464Z,6.40
2018-12-29T12:31:28.446Z,6.50
2018-12-29T12:34:15.744Z,6.50
2018-12-29T12:39:47.281Z,6.60
2018-12-29T12:42:34.275Z,6.60
2018-12-29T12:45:21.106Z,6.60
2018-12-29T12:48:07.943Z,6.60
2018-12-29T12:50:55.123Z,6.60
2018-12-29T12:53:42.216Z,6.70
2018-12-29T12:56:29.185Z,6.60
2018-12-29T12:59:16.083Z,6.60
2018-12-29T13:02:03.358Z,6.70
2018-12-29T13:04:50.156Z,6.70
2018-12-29T13:07:37.129Z,6.60
2018-12-29T13:10:22.967Z,6.60
2018-12-29T13:13:09.893Z,6.60
2018-12-29T13:15:55.648Z,6.70
2018-12-29T13:18:42.643Z,6.70
2018-12-29T13:21:28.486Z,6.70
2018-12-29T13:24:15.382Z,6.80
2018-12-29T13:27:02.421Z,6.80
2018-12-29T13:32:33.897Z,6.80
2018-12-29T13:35:20.357Z,6.80
2018-12-29T13:38:07.305Z,6.80
2018-12-29T13:40:53.065Z,6.80
2018-12-29T13:43:40.047Z,6.80
2018-12-29T13:46:25.874Z,6.70
2018-12-29T13:49:12.831Z,6.70
2018-12-29T13:51:58.741Z,6.70
2018-12-29T13:54:45.677Z,6.70
2018-12-29T13:57:31.353Z,6.70
2018-12-29T14:00:18.325Z,6.70
2018-12-29T14:03:04.041Z,6.70
2018-12-29T14:05:51.004Z,6.70
2018-12-29T14:08:36.671Z,6.70
2018-12-29T14:14:30.281Z,6.70
2018-12-29T14:20:14.680Z,6.70
2018-12-29T14:23:02.289Z,6.70
2018-12-29T14:25:50.106Z,6.70
2018-12-29T14:28:38.113Z,6.70
2018-12-29T14:31:25.809Z,6.70
2018-12-29T14:34:13.581Z,6.70
2018-12-29T14:37:01.652Z,6.70
2018-12-29T14:42:34.681Z,6.60
2018-12-29T14:45:22.116Z,6.50
2018-12-29T14:48:09.903Z,6.50
2018-12-29T14:50:57.822Z,6.60
2018-12-29T14:53:45.589Z,6.50
2018-12-29T14:56:33.343Z,6.60
2018-12-29T14:59:21.269Z,6.60
2018-12-29T15:02:09.022Z,6.50
2018-12-29T15:04:56.584Z,6.50
2018-12-29T15:07:44.347Z,6.50
2018-12-29T15:10:31.940Z,6.50
2018-12-29T15:13:15.380Z,6.50
2018-12-29T15:15:58.371Z,6.60
2018-12-29T15:18:46.698Z,6.50
2018-12-29T15:21:53.906Z,6.50
2018-12-29T15:24:39.910Z,6.50
2018-12-29T15:27:27.790Z,6.50
2018-12-29T15:33:01.376Z,6.50
2018-12-29T15:35:49.244Z,6.50
2018-12-29T15:41:25.330Z,6.50
2018-12-29T15:44:28.295Z,6.50
2018-12-29T15:47:15.545Z,6.50
2018-12-29T15:50:21.451Z,6.50
2018-12-29T15:53:06.509Z,6.40
2018-12-29T15:55:54.633Z,6.50
2018-12-29T15:59:02.086Z,6.50
2018-12-29T16:01:55.983Z,6.40
2018-12-29T16:04:42.773Z,6.40
2018-12-29T16:07:48.568Z,6.50
2018-12-29T16:10:33.390Z,6.50
2018-12-29T16:13:05.360Z,6.50
2018-12-29T16:15:53.509Z,6.50
2018-12-29T16:19:16.173Z,6.50
2018-12-29T16:22:01.506Z,6.50
2018-12-29T16:27:01.890Z,6.50
2018-12-29T16:29:36.550Z,6.60
2018-12-29T16:32:09.901Z,6.60
2018-12-29T16:34:42.107Z,6.60
2018-12-29T16:37:14.073Z,6.60
2018-12-29T16:39:52.335Z,6.60
2018-12-29T16:42:24.491Z,6.60
2018-12-29T16:44:56.779Z,6.60
2018-12-29T16:47:28.640Z,6.60
2018-12-29T16:50:00.532Z,6.60
2018-12-29T16:52:32.635Z,6.60
2018-12-29T16:55:04.672Z,6.60
2018-12-29T16:57:36.792Z,6.60
2018-12-29T17:00:08.774Z,6.70
2018-12-29T17:02:40.785Z,6.70
2018-12-29T17:05:13.010Z,6.70
2018-12-29T17:07:44.904Z,6.70
2018-12-29T17:10:16.833Z,6.70
2018-12-29T17:12:49.653Z,6.70
2018-12-29T17:15:23.568Z,6.70
2018-12-29T17:17:59.848Z,6.70
2018-12-29T17:20:33.925Z,6.80
2018-12-29T17:23:05.363Z,6.80
2018-12-29T17:25:37.234Z,6.80
2018-12-29T17:28:11.084Z,6.80
2018-12-29T17:30:45.201Z,6.80
2018-12-29T17:33:17.108Z,6.80
2018-12-29T17:35:49.011Z,6.80
2018-12-29T17:38:22.228Z,6.80
2018-12-29T17:40:54.128Z,6.90
2018-12-29T17:43:26.284Z,6.90
2018-12-29T17:45:57.938Z,6.90
2018-12-29T17:48:29.896Z,7.00
2018-12-29T17:51:01.706Z,7.00
2018-12-29T17:53:35.189Z,7.00
2018-12-29T17:56:07.131Z,7.00
2018-12-29T17:58:39.490Z,7.00
2018-12-29T18:01:11.483Z,7.00
2018-12-29T18:03:44.633Z,7.00
2018-12-29T18:06:16.491Z,7.00
2018-12-29T18:08:50.701Z,7.10
2018-12-29T18:11:22.959Z,7.10
2018-12-29T18:13:54.725Z,7.20
2018-12-29T18:16:27.303Z,7.20
2018-12-29T18:18:58.970Z,7.20
2018-12-29T18:21:30.931Z,7.20
2018-12-29T18:24:03.859Z,7.30
2018-12-29T18:26:35.672Z,7.40
2018-12-29T18:29:07.805Z,7.40
2018-12-29T18:31:39.789Z,7.50
2018-12-29T18:34:11.421Z,7.60
2018-12-29T18:36:43.373Z,7.60
2018-12-29T18:39:15.094Z,7.60
2018-12-29T18:41:46.305Z,7.70
2018-12-29T18:44:17.948Z,7.70
2018-12-29T18:46:49.534Z,7.70
2018-12-29T18:49:20.749Z,7.80
2018-12-29T18:51:51.894Z,7.80
2018-12-29T18:54:23.508Z,7.80
2018-12-29T18:56:55.089Z,7.90
2018-12-29T18:59:28.169Z,8.00
2018-12-29T19:01:59.876Z,8.00
2018-12-29T19:04:31.305Z,8.00
2018-12-29T19:07:02.855Z,8.00
2018-12-29T19:09:34.227Z,8.00
2018-12-29T19:12:11.125Z,8.00
2018-12-29T19:14:38.743Z,8.10
2018-12-29T19:17:10.206Z,8.10
2018-12-29T19:19:46.307Z,8.20
2018-12-29T19:22:15.041Z,8.30
2018-12-29T19:24:46.765Z,8.30
2018-12-29T19:27:18.157Z,8.50
2018-12-29T19:29:49.585Z,8.50
2018-12-29T19:32:21.624Z,8.50
2018-12-29T19:34:53.369Z,8.60
2018-12-29T19:37:24.800Z,8.60
2018-12-29T19:39:56.613Z,8.60
2018-12-29T19:42:28.227Z,8.50
2018-12-29T19:45:00.528Z,8.60
2018-12-29T19:47:31.974Z,8.70
2018-12-29T19:50:03.966Z,8.70
2018-12-29T19:52:35.221Z,8.70
2018-12-29T19:55:06.883Z,8.70
2018-12-29T19:57:39.921Z,8.70
2018-12-29T20:00:12.171Z,8.80
2018-12-29T20:02:44.135Z,8.80
2018-12-29T20:05:16.315Z,8.90
2018-12-29T20:07:48.012Z,9.00
2018-12-29T20:10:28.753Z,9.00
2018-12-29T20:13:02.932Z,9.00
2018-12-29T20:15:34.495Z,9.00
2018-12-29T20:18:07.173Z,9.00
2018-12-29T20:20:38.532Z,9.00
2018-12-29T20:23:10.072Z,9.10
2018-12-29T20:25:41.834Z,9.00
2018-12-29T20:28:14.667Z,9.00
2018-12-29T20:30:46.242Z,9.00
2018-12-29T20:33:17.751Z,8.90
2018-12-29T20:35:49.272Z,8.90
2018-12-29T20:38:20.548Z,8.80
2018-12-29T20:40:52.124Z,8.80
2018-12-29T20:43:23.795Z,8.70
2018-12-29T20:45:55.749Z,8.70
2018-12-29T20:48:27.281Z,8.70
2018-12-29T20:50:58.813Z,8.70
2018-12-29T20:53:30.383Z,8.60
2018-12-29T20:56:02.234Z,8.60
2018-12-29T20:58:33.887Z,8.60
2018-12-29T21:01:05.334Z,8.50
2018-12-29T21:03:36.877Z,8.50
2018-12-29T21:06:08.660Z,8.40
2018-12-29T21:08:40.144Z,8.40
2018-12-29T21:11:12.710Z,8.40
2018-12-29T21:13:44.316Z,8.40
2018-12-29T21:16:15.682Z,8.30
2018-12-29T21:18:51.813Z,8.40
2018-12-29T21:21:23.196Z,8.30
2018-12-29T21:23:54.686Z,8.30
2018-12-29T21:26:26.221Z,8.30
2018-12-29T21:28:57.702Z,8.30
2018-12-29T21:31:29.405Z,8.20
2018-12-29T21:34:00.998Z,8.20
2018-12-29T21:36:32.664Z,8.20
2018-12-29T21:39:05.430Z,8.20
2018-12-29T21:41:36.991Z,8.10
2018-12-29T21:44:09.441Z,8.10
2018-12-29T21:46:41.973Z,8.10
2018-12-29T21:49:13.326Z,8.00
2018-12-29T21:51:44.918Z,8.00
2018-12-29T21:54:17.899Z,8.00
2018-12-29T21:56:50.880Z,8.00
2018-12-29T21:59:22.136Z,8.00
2018-12-29T22:01:53.761Z,8.00
2018-12-29T22:04:26.802Z,8.00
2018-12-29T22:06:58.366Z,7.90
2018-12-29T22:09:29.950Z,7.90
2018-12-29T22:12:01.507Z,7.90
2018-12-29T22:14:34.338Z,7.90
2018-12-29T22:17:05.942Z,7.90
2018-12-29T22:19:37.680Z,8.00
2018-12-29T22:22:09.116Z,8.00
2018-12-29T22:24:40.858Z,7.90
2018-12-29T22:27:12.289Z,8.00
2018-12-29T22:29:44.294Z,8.00
2018-12-29T22:32:17.093Z,8.00
2018-12-29T22:34:49.464Z,8.10
2018-12-29T22:37:20.936Z,8.10
2018-12-29T22:42:39.881Z,8.10
2018-12-29T22:45:11.402Z,8.10
2018-12-29T22:47:42.995Z,8.10
2018-12-29T22:50:14.749Z,8.10
2018-12-29T22:52:46.133Z,8.10
2018-12-29T22:55:17.738Z,8.10
2018-12-29T22:57:50.159Z,8.10
2018-12-29T23:00:41.716Z,8.10
2018-12-29T23:03:13.336Z,8.10
2018-12-29T23:05:46.362Z,8.10
2018-12-29T23:08:17.901Z,8.10
2018-12-29T23:10:49.109Z,8.10
2018-12-29T23:13:20.672Z,8.10
2018-12-29T23:15:51.809Z,8.20
2018-12-29T23:18:23.112Z,8.20
2018-12-29T23:20:54.266Z,8.20
2018-12-29T23:23:25.430Z,8.20
2018-12-29T23:25:57.317Z,8.20
2018-12-29T23:28:30.566Z,8.20
2018-12-29T23:31:02.265Z,8.20
2018-12-29T23:33:34.159Z,8.20
2018-12-29T23:36:05.744Z,8.20
2018-12-29T23:38:37.415Z,8.20
2018-12-29T23:41:08.994Z,8.30
2018-12-29T23:43:40.756Z,8.30
2018-12-29T23:46:12.421Z,8.30
2018-12-29T23:48:43.901Z,8.30
2018-12-29T23:51:16.788Z,8.30
2018-12-29T23:53:50.594Z,8.20
2018-12-29T23:56:22.331Z,8.30
2018-12-29T23:58:57.081Z,8.30
